Main page
METAR-TAF:

METAR-TAF

Airports :

King Abdulaziz International Airport

Jeddah, Saudi Arabia

latitude: 21-42N, longitude: 039-11E, elevation: 15 m

Current weather observation

The report was made 55 minutes ago, at 07:00 UTC
Wind 2 kt from the North/Northeast
Temperature 25°C
Humidity 47%
Pressure 1017 hPa
Visibility 10 km or more
no clouds below 1500 m and no cumulonimbus

METAR: OEJN 200700Z 03002KT CAVOK 25/13 Q1017 NOSIG

Time: 10:55 (07:55 UTC)

Forecast

The report was made 2 hours and 55 minutes ago, at 05:00 UTC
Forecast valid from 20 at 06 UTC to 21 at 12 UTC
Wind 14 kt from the West/Northwest
Visibility: 8000 m
Few clouds at a height of 4000 ft
Becoming
from 20 at 15 UTC to 20 at 17 UTC
Wind 11 kt from the North/Northeast

TAF: OEJN 200500Z 2006/2112 29014KT 8000 FEW040 BECMG 2015/2017 03011KT

Weather observations and forecasts of more than 4000 airports (METAR and TAF reports).

The available stations are represented by yellow and red dots on the map.

Hover mouse over dot to see the name of the station.

Then click to see weather observations and forecasts.

To change the map : click on the green buttons with a black cross to zoom in, on the green button with a dash to zoom out, or on the green arrows for adjacent maps.


METAR-TAF: